Helmar, Illinois
Current Conditions -  °F | °C
As of 1:55 PM on Tuesday 21 Oct 2014 (Local Time) from KC09 Reporting Station
Overcast Overcast  
Wind Chill: 56°   Ceiling: 4400
Heat Index: 56°   Visibility: 10mi
Dew Point: 42°   Wind: 7mph
Humidity: 59%   Direction: 360°N
Pressure: 30.16"   Gusts: NA
Location:  41.5124°N, 88.5214°W
Report Text: KC09 211855Z AUTO 36006KT 10SM SCT036 OVC044 14/06 A3016 RMK AO2 T01360057
Loading
Personal Weather Stations






























Interactive Weather Map
Tropical Storm Tracking
New forecast layout! Learn more

10-Day Weather Forecast

Advertisements
Track Severe Weather on mobile